createdAt,value
2023-03-30T00:00:56.517Z,12.75
2023-03-30T00:03:28.792Z,16.35
2023-03-30T00:06:05.392Z,12.73
2023-03-30T00:08:38.139Z,13.65
2023-03-30T00:11:13.326Z,16.55
2023-03-30T00:13:45.412Z,17.05
2023-03-30T00:16:18.118Z,15.27
2023-03-30T00:18:50.629Z,17.38
2023-03-30T00:21:22.857Z,15.10
2023-03-30T00:23:54.821Z,15.73
2023-03-30T00:26:27.208Z,13.00
2023-03-30T00:28:59.034Z,15.73
2023-03-30T00:31:31.152Z,18.77
2023-03-30T00:34:03.101Z,15.13
2023-03-30T00:36:37.224Z,14.73
2023-03-30T00:39:09.961Z,10.32
2023-03-30T00:41:41.847Z,17.30
2023-03-30T00:44:52.013Z,13.63
2023-03-30T00:47:25.259Z,13.07
2023-03-30T00:49:57.995Z,14.65
2023-03-30T00:52:33.152Z,18.15
2023-03-30T00:55:08.063Z,15.20
2023-03-30T00:57:43.203Z,12.80
2023-03-30T01:00:15.426Z,14.02
2023-03-30T01:02:56.624Z,14.40
2023-03-30T01:05:29.652Z,15.30
2023-03-30T01:08:07.562Z,15.63
2023-03-30T01:10:39.871Z,14.88
2023-03-30T01:13:14.292Z,13.57
2023-03-30T01:16:01.300Z,13.18
2023-03-30T01:18:40.393Z,19.73
2023-03-30T01:21:31.592Z,14.95
2023-03-30T01:24:09.327Z,18.35
2023-03-30T01:26:53.499Z,12.52
2023-03-30T01:29:31.244Z,17.55
2023-03-30T01:32:28.041Z,14.73
2023-03-30T01:35:17.991Z,20.60
2023-03-30T01:37:58.334Z,17.50
2023-03-30T01:40:53.516Z,11.85
2023-03-30T01:43:31.668Z,14.98
2023-03-30T01:46:34.228Z,17.05
2023-03-30T01:49:15.690Z,14.75
2023-03-30T01:52:05.332Z,13.68
2023-03-30T01:54:44.356Z,16.35
2023-03-30T01:57:20.553Z,24.05
2023-03-30T01:59:59.351Z,16.90
2023-03-30T02:02:32.996Z,18.45
2023-03-30T02:05:08.727Z,17.20
2023-03-30T02:07:43.099Z,17.13
2023-03-30T02:10:18.288Z,12.95
2023-03-30T02:12:51.759Z,13.27
2023-03-30T02:15:26.436Z,17.15
2023-03-30T02:17:58.367Z,17.75
2023-03-30T02:20:31.931Z,18.70
2023-03-30T02:27:08.576Z,16.02
2023-03-30T02:33:56.912Z,14.05
2023-03-30T02:36:34.521Z,11.65
2023-03-30T02:39:19.212Z,13.13
2023-03-30T02:42:00.563Z,13.52
2023-03-30T02:45:03.121Z,15.05
2023-03-30T02:48:02.861Z,18.05
2023-03-30T02:50:54.617Z,16.15
2023-03-30T02:54:16.276Z,16.17
2023-03-30T02:57:32.935Z,16.17
2023-03-30T03:00:53.864Z,13.70
2023-03-30T03:03:45.989Z,12.13
2023-03-30T03:06:20.477Z,16.17
2023-03-30T03:08:58.207Z,15.48
2023-03-30T03:11:32.966Z,15.85
2023-03-30T03:14:07.881Z,20.27
2023-03-30T03:16:39.830Z,16.90
2023-03-30T03:19:34.450Z,13.27
2023-03-30T03:22:07.535Z,16.25
2023-03-30T03:24:41.626Z,14.40
2023-03-30T03:27:37.838Z,15.45
2023-03-30T03:30:19.963Z,18.23
2023-03-30T03:33:01.668Z,15.80
2023-03-30T03:35:39.319Z,15.77
2023-03-30T03:38:14.048Z,13.85
2023-03-30T03:40:57.905Z,17.35
2023-03-30T03:43:31.542Z,14.73
2023-03-30T03:46:03.661Z,17.30
2023-03-30T03:48:36.537Z,17.15
2023-03-30T03:51:09.468Z,14.15
2023-03-30T03:53:41.704Z,12.77
2023-03-30T03:56:17.054Z,17.80
2023-03-30T03:58:49.000Z,17.08
2023-03-30T04:01:20.836Z,13.23
2023-03-30T04:03:52.817Z,14.95
2023-03-30T04:06:24.828Z,16.50
2023-03-30T04:08:56.811Z,13.07
2023-03-30T04:11:41.569Z,18.48
2023-03-30T04:14:40.258Z,16.08
2023-03-30T04:17:37.279Z,14.32
2023-03-30T04:20:29.274Z,18.80
2023-03-30T04:23:22.067Z,16.38
2023-03-30T04:26:30.507Z,15.85
2023-03-30T04:29:27.450Z,12.85
2023-03-30T04:32:21.589Z,18.15
2023-03-30T04:34:59.712Z,13.57
2023-03-30T04:37:35.236Z,11.65
2023-03-30T04:40:26.757Z,15.82
2023-03-30T04:43:04.743Z,19.10
2023-03-30T04:46:06.229Z,13.73
2023-03-30T04:48:53.284Z,15.50
2023-03-30T04:51:45.406Z,16.58
2023-03-30T04:54:35.710Z,16.88
2023-03-30T04:57:27.938Z,16.55
2023-03-30T05:00:29.577Z,13.60
2023-03-30T05:03:23.482Z,12.43
2023-03-30T05:06:17.920Z,13.38
2023-03-30T05:09:16.725Z,15.23
2023-03-30T05:12:07.248Z,11.70
2023-03-30T05:14:52.378Z,16.67
2023-03-30T05:17:34.281Z,14.35
2023-03-30T05:20:25.168Z,16.42
2023-03-30T05:23:16.075Z,16.92
2023-03-30T05:25:56.842Z,14.88
2023-03-30T05:28:44.055Z,16.60
2023-03-30T05:31:41.241Z,12.30
2023-03-30T05:34:13.179Z,17.85
2023-03-30T05:37:02.691Z,15.68
2023-03-30T05:39:41.252Z,18.27
2023-03-30T05:42:26.478Z,12.02
2023-03-30T05:45:05.614Z,17.27
2023-03-30T05:48:00.881Z,14.77
2023-03-30T05:50:38.717Z,17.85
2023-03-30T05:53:16.445Z,13.40
2023-03-30T05:56:19.725Z,17.90
2023-03-30T05:59:17.087Z,15.82
2023-03-30T06:01:59.542Z,20.17
2023-03-30T06:04:32.603Z,14.55
2023-03-30T06:07:07.769Z,26.00
2023-03-30T06:09:39.733Z,20.10
2023-03-30T06:12:23.397Z,16.38
2023-03-30T06:14:55.478Z,16.98
2023-03-30T06:17:52.140Z,12.10
2023-03-30T06:20:26.125Z,18.85
2023-03-30T06:22:58.156Z,26.77
2023-03-30T06:25:31.271Z,42.25
2023-03-30T06:28:03.952Z,19.23
2023-03-30T06:30:36.638Z,17.75
2023-03-30T06:33:11.837Z,19.30
2023-03-30T06:36:00.612Z,14.27
2023-03-30T06:38:33.605Z,18.95
2023-03-30T06:41:10.079Z,16.92
2023-03-30T06:43:44.630Z,19.00
2023-03-30T06:46:20.102Z,23.38
2023-03-30T06:48:54.240Z,21.67
2023-03-30T06:51:46.607Z,40.33
2023-03-30T06:54:20.412Z,14.80
2023-03-30T06:56:59.388Z,19.80
2023-03-30T07:03:36.386Z,16.48
2023-03-30T07:06:22.933Z,18.52
2023-03-30T07:08:55.167Z,16.90
2023-03-30T07:11:30.094Z,18.92
2023-03-30T07:14:02.433Z,18.27
2023-03-30T07:16:34.502Z,17.17
2023-03-30T07:19:08.992Z,23.42
2023-03-30T07:21:41.106Z,23.55
2023-03-30T07:24:16.669Z,20.35
2023-03-30T07:26:49.813Z,18.20
2023-03-30T07:29:24.929Z,19.65
2023-03-30T07:31:59.806Z,15.32
2023-03-30T07:34:33.728Z,19.17
2023-03-30T07:37:08.066Z,13.32
2023-03-30T07:39:41.769Z,23.85
2023-03-30T07:42:13.792Z,24.08
2023-03-30T07:44:46.552Z,16.52
2023-03-30T07:47:22.180Z,17.35
2023-03-30T07:49:54.094Z,17.95
2023-03-30T07:52:26.474Z,16.02
2023-03-30T07:55:04.487Z,18.60
2023-03-30T07:57:47.094Z,23.00
2023-03-30T08:00:23.438Z,15.55
2023-03-30T08:03:16.738Z,22.48
2023-03-30T08:05:57.177Z,18.42
2023-03-30T08:08:36.048Z,17.92
2023-03-30T08:11:13.597Z,15.85
2023-03-30T08:13:49.858Z,19.27
2023-03-30T08:16:21.938Z,18.52
2023-03-30T08:18:55.596Z,20.75
2023-03-30T08:21:27.790Z,22.05
2023-03-30T08:24:01.646Z,21.98
2023-03-30T08:26:33.821Z,20.17
2023-03-30T08:29:07.067Z,30.70
2023-03-30T08:31:39.284Z,21.23
2023-03-30T08:34:11.627Z,21.40
2023-03-30T08:36:43.623Z,17.13
2023-03-30T08:39:15.866Z,20.52
2023-03-30T08:41:59.935Z,19.05
2023-03-30T08:44:33.911Z,17.17
2023-03-30T08:47:13.976Z,20.23
2023-03-30T08:49:59.532Z,19.27
2023-03-30T08:52:38.001Z,28.45
2023-03-30T08:55:28.007Z,21.42
2023-03-30T08:58:03.811Z,28.52
2023-03-30T09:00:57.099Z,25.92
2023-03-30T09:03:59.457Z,26.15
2023-03-30T09:06:50.025Z,27.00
2023-03-30T09:09:25.442Z,27.48
2023-03-30T09:12:05.937Z,25.35
2023-03-30T09:14:48.245Z,27.90
2023-03-30T09:17:33.140Z,41.92
2023-03-30T09:20:30.786Z,47.95
2023-03-30T09:23:03.715Z,29.50
2023-03-30T09:25:54.399Z,28.05
2023-03-30T09:28:53.599Z,24.20
2023-03-30T09:31:55.145Z,26.55
2023-03-30T09:37:06.205Z,34.33
2023-03-30T09:39:39.498Z,25.48
2023-03-30T09:42:36.843Z,28.92
2023-03-30T09:45:22.676Z,34.05
2023-03-30T09:47:58.336Z,27.38
2023-03-30T09:50:30.849Z,28.13
2023-03-30T09:53:05.414Z,31.10
2023-03-30T09:55:38.213Z,31.40
2023-03-30T09:58:21.074Z,27.23
2023-03-30T10:01:13.712Z,23.63
2023-03-30T10:04:05.516Z,23.77
2023-03-30T10:06:53.434Z,19.70
2023-03-30T10:09:28.310Z,21.77
2023-03-30T10:12:00.218Z,20.73
2023-03-30T10:14:43.717Z,19.60
2023-03-30T10:17:25.200Z,23.77
2023-03-30T10:20:37.890Z,28.48
2023-03-30T10:23:20.280Z,23.63
2023-03-30T10:26:03.824Z,27.45
2023-03-30T10:28:36.425Z,25.50
2023-03-30T10:31:18.556Z,30.67
2023-03-30T10:33:58.193Z,26.60
2023-03-30T10:36:34.263Z,24.17
2023-03-30T10:39:23.556Z,31.77
2023-03-30T10:41:59.694Z,27.23
2023-03-30T10:45:02.953Z,29.00
2023-03-30T10:48:00.598Z,27.13
2023-03-30T10:51:12.315Z,27.35
2023-03-30T10:54:10.957Z,22.70
2023-03-30T10:56:57.241Z,21.77
2023-03-30T10:59:53.965Z,21.23
2023-03-30T11:03:15.089Z,33.35
2023-03-30T11:05:54.296Z,34.10
2023-03-30T11:08:39.588Z,22.98
2023-03-30T11:11:24.407Z,28.83
2023-03-30T11:14:15.916Z,29.45
2023-03-30T11:19:49.174Z,26.90
2023-03-30T11:22:36.731Z,20.67
2023-03-30T11:25:28.876Z,20.08
2023-03-30T11:28:29.986Z,38.10
2023-03-30T11:31:13.520Z,21.55
2023-03-30T11:33:54.632Z,17.95
2023-03-30T11:36:59.388Z,19.40
2023-03-30T11:39:36.677Z,23.58
2023-03-30T11:42:27.834Z,20.58
2023-03-30T11:45:01.772Z,19.45
2023-03-30T11:47:39.585Z,20.63
2023-03-30T11:50:29.937Z,25.85
2023-03-30T11:53:24.352Z,26.30
2023-03-30T11:56:10.606Z,20.90
2023-03-30T11:59:01.835Z,16.45
2023-03-30T12:02:01.491Z,15.75
2023-03-30T12:04:42.931Z,19.73
2023-03-30T12:07:31.072Z,21.08
2023-03-30T12:10:09.518Z,20.17
2023-03-30T12:12:45.500Z,23.35
2023-03-30T12:15:40.477Z,20.67
2023-03-30T12:18:38.236Z,21.13
2023-03-30T12:21:47.796Z,21.30
2023-03-30T12:24:39.498Z,20.00
2023-03-30T12:27:12.029Z,19.47
2023-03-30T12:32:30.914Z,20.20
2023-03-30T12:35:44.664Z,18.92
2023-03-30T12:38:22.654Z,23.63
2023-03-30T12:41:30.603Z,19.00
2023-03-30T12:44:15.016Z,18.23
2023-03-30T12:47:24.842Z,17.25
2023-03-30T12:50:00.979Z,20.30
2023-03-30T12:52:47.961Z,18.52
2023-03-30T12:55:54.209Z,21.83
2023-03-30T12:58:55.263Z,24.95
2023-03-30T13:02:00.110Z,24.35
2023-03-30T13:04:39.560Z,24.02
2023-03-30T13:07:27.179Z,22.05
2023-03-30T13:10:04.005Z,22.77
2023-03-30T13:12:41.815Z,22.23
2023-03-30T13:15:16.746Z,21.08
2023-03-30T13:18:07.250Z,21.92
2023-03-30T13:20:48.085Z,21.63
2023-03-30T13:23:19.966Z,20.35
2023-03-30T13:26:33.808Z,22.00
2023-03-30T13:29:11.891Z,21.15
2023-03-30T13:32:05.024Z,22.05
2023-03-30T13:35:05.986Z,23.10
2023-03-30T13:38:05.830Z,21.30
2023-03-30T13:41:04.633Z,20.30
2023-03-30T13:44:14.836Z,22.10
2023-03-30T13:46:53.781Z,22.33
2023-03-30T13:49:52.499Z,25.10
2023-03-30T13:52:38.688Z,20.73
2023-03-30T13:55:19.626Z,20.48
2023-03-30T13:57:59.654Z,19.77
2023-03-30T14:00:52.420Z,21.30
2023-03-30T14:03:40.460Z,20.00
2023-03-30T14:06:26.464Z,19.75
2023-03-30T14:09:23.372Z,19.90
2023-03-30T14:11:59.605Z,15.63
2023-03-30T14:14:41.179Z,15.38
2023-03-30T14:17:24.297Z,21.20
2023-03-30T14:20:06.829Z,17.27
2023-03-30T14:22:44.518Z,14.98
2023-03-30T14:25:40.292Z,19.10
2023-03-30T14:28:22.900Z,15.57
2023-03-30T14:31:04.654Z,22.33
2023-03-30T14:33:40.242Z,17.48
2023-03-30T14:36:18.293Z,17.70
2023-03-30T14:38:52.895Z,17.90
2023-03-30T14:41:27.990Z,14.75
2023-03-30T14:44:06.945Z,21.58
2023-03-30T14:46:47.449Z,15.77
2023-03-30T14:49:32.687Z,15.55
2023-03-30T14:52:14.877Z,17.20
2023-03-30T14:55:01.829Z,13.30
2023-03-30T14:57:39.468Z,14.55
2023-03-30T15:00:20.225Z,14.82
2023-03-30T15:03:00.640Z,14.20
2023-03-30T15:05:42.847Z,15.55
2023-03-30T15:08:25.135Z,13.93
2023-03-30T15:11:06.618Z,14.10
2023-03-30T15:13:54.720Z,15.82
2023-03-30T15:16:29.937Z,20.05
2023-03-30T15:19:22.087Z,35.58
2023-03-30T15:21:58.266Z,13.55
2023-03-30T15:24:37.424Z,21.58
2023-03-30T15:27:13.899Z,14.65
2023-03-30T15:29:47.610Z,17.23
2023-03-30T15:32:27.490Z,14.27
2023-03-30T15:35:04.435Z,13.15
2023-03-30T15:37:37.284Z,11.52
2023-03-30T15:40:40.274Z,8.02
2023-03-30T15:43:25.225Z,8.73
2023-03-30T15:46:02.927Z,7.43
2023-03-30T15:48:43.433Z,9.95
2023-03-30T15:51:19.541Z,11.18
2023-03-30T15:54:17.839Z,11.65
2023-03-30T15:57:21.651Z,10.38
2023-03-30T16:00:01.439Z,10.60
2023-03-30T16:02:57.930Z,11.57
2023-03-30T16:05:33.917Z,15.05
2023-03-30T16:08:06.464Z,13.48
2023-03-30T16:10:38.960Z,13.18
2023-03-30T16:13:12.245Z,11.07
2023-03-30T16:15:45.008Z,12.43
2023-03-30T16:18:17.108Z,11.02
2023-03-30T16:20:49.006Z,13.48
2023-03-30T16:23:22.999Z,12.68
2023-03-30T16:25:54.935Z,11.07
2023-03-30T16:28:26.930Z,10.93
2023-03-30T16:31:03.654Z,13.23
2023-03-30T16:33:36.515Z,16.75
2023-03-30T16:36:14.218Z,13.10
2023-03-30T16:38:46.865Z,14.02
2023-03-30T16:41:21.258Z,14.38
2023-03-30T16:43:57.314Z,13.57
2023-03-30T16:46:29.321Z,14.15
2023-03-30T16:49:01.666Z,12.85
2023-03-30T16:51:33.577Z,12.00
2023-03-30T16:54:16.324Z,15.40
2023-03-30T16:56:55.768Z,11.68
2023-03-30T16:59:30.322Z,18.10
2023-03-30T17:02:03.955Z,16.88
2023-03-30T17:04:35.784Z,14.93
2023-03-30T17:07:09.453Z,17.60
2023-03-30T17:09:41.316Z,14.30
2023-03-30T17:12:13.165Z,14.50
2023-03-30T17:14:45.156Z,19.95
2023-03-30T17:17:17.004Z,16.33
2023-03-30T17:19:48.865Z,18.25
2023-03-30T17:22:20.739Z,15.52
2023-03-30T17:24:52.570Z,18.33
2023-03-30T17:27:25.927Z,20.88
2023-03-30T17:29:57.979Z,16.00
2023-03-30T17:32:29.949Z,18.00
2023-03-30T17:35:01.872Z,17.80
2023-03-30T17:37:33.807Z,15.93
2023-03-30T17:40:27.005Z,16.73
2023-03-30T17:43:24.292Z,16.90
2023-03-30T17:45:56.238Z,16.60
2023-03-30T17:48:28.220Z,15.18
2023-03-30T17:51:00.602Z,14.23
2023-03-30T17:53:32.806Z,13.75
2023-03-30T17:56:05.178Z,25.40
2023-03-30T17:58:37.293Z,21.48
2023-03-30T18:01:12.339Z,23.15
2023-03-30T18:03:45.090Z,20.80
2023-03-30T18:06:19.984Z,14.40
2023-03-30T18:08:52.137Z,15.75
2023-03-30T18:11:24.004Z,16.92
2023-03-30T18:13:56.024Z,15.43
2023-03-30T18:16:28.012Z,14.85
2023-03-30T18:19:00.146Z,29.30
2023-03-30T18:21:32.107Z,18.55
2023-03-30T18:24:05.122Z,19.55
2023-03-30T18:26:39.630Z,15.82
2023-03-30T18:29:20.267Z,19.52
2023-03-30T18:32:04.719Z,16.52
2023-03-30T18:34:36.594Z,18.00
2023-03-30T18:37:09.308Z,20.25
2023-03-30T18:39:43.064Z,23.45
2023-03-30T18:42:14.975Z,23.15
2023-03-30T18:44:47.879Z,22.88
2023-03-30T18:47:19.776Z,19.10
2023-03-30T18:49:51.702Z,26.20
2023-03-30T18:52:23.524Z,20.63
2023-03-30T18:54:55.601Z,19.67
2023-03-30T18:57:27.686Z,20.02
2023-03-30T19:00:01.697Z,18.23
2023-03-30T19:02:33.797Z,25.65
2023-03-30T19:05:06.620Z,24.98
2023-03-30T19:07:38.508Z,19.55
2023-03-30T19:10:18.736Z,18.65
2023-03-30T19:12:53.486Z,17.00
2023-03-30T19:15:28.519Z,18.50
2023-03-30T19:18:01.747Z,26.38
2023-03-30T19:20:37.834Z,17.40
2023-03-30T19:23:17.160Z,22.52
2023-03-30T19:25:49.335Z,18.58
2023-03-30T19:28:21.696Z,17.25
2023-03-30T19:30:53.793Z,22.65
2023-03-30T19:33:32.056Z,17.23
2023-03-30T19:36:10.073Z,22.67
2023-03-30T19:38:43.961Z,19.92
2023-03-30T19:41:19.138Z,21.63
2023-03-30T19:43:51.761Z,78.10
2023-03-30T19:46:24.564Z,76.28
2023-03-30T19:48:56.962Z,95.25
2023-03-30T19:51:29.781Z,77.50
2023-03-30T19:54:03.139Z,34.85
2023-03-30T19:56:35.423Z,43.83
2023-03-30T19:59:08.158Z,29.00
2023-03-30T20:01:40.290Z,31.30
2023-03-30T20:04:12.255Z,29.83
2023-03-30T20:06:44.211Z,24.58
2023-03-30T20:09:16.823Z,19.67
2023-03-30T20:11:49.110Z,22.70
2023-03-30T20:14:21.209Z,26.33
2023-03-30T20:16:53.124Z,23.52
2023-03-30T20:19:29.639Z,20.85
2023-03-30T20:22:02.194Z,20.52
2023-03-30T20:24:34.096Z,23.88
2023-03-30T20:27:06.788Z,27.33
2023-03-30T20:29:38.703Z,24.52
2023-03-30T20:32:10.779Z,22.73
2023-03-30T20:34:45.850Z,26.00
2023-03-30T20:37:25.706Z,22.17
2023-03-30T20:40:05.192Z,25.63
2023-03-30T20:42:42.743Z,18.65
2023-03-30T20:45:14.785Z,21.25
2023-03-30T20:47:50.174Z,18.65
2023-03-30T20:50:22.698Z,20.95
2023-03-30T20:52:54.519Z,23.33
2023-03-30T20:55:26.740Z,21.92
2023-03-30T20:57:58.739Z,23.02
2023-03-30T21:00:30.645Z,22.53
2023-03-30T21:03:02.604Z,17.80
2023-03-30T21:05:34.602Z,24.17
2023-03-30T21:08:07.920Z,19.48
2023-03-30T21:10:42.999Z,23.75
2023-03-30T21:13:15.359Z,25.50
2023-03-30T21:15:47.406Z,29.35
2023-03-30T21:18:19.230Z,22.58
2023-03-30T21:20:51.472Z,24.17
2023-03-30T21:23:25.365Z,23.30
2023-03-30T21:26:02.628Z,26.40
2023-03-30T21:28:35.664Z,22.60
2023-03-30T21:31:11.558Z,24.85
2023-03-30T21:33:43.821Z,26.67
2023-03-30T21:36:15.775Z,27.67
2023-03-30T21:38:47.712Z,26.95
2023-03-30T21:41:21.414Z,24.95
2023-03-30T21:43:55.569Z,24.65
2023-03-30T21:46:27.460Z,24.83
2023-03-30T21:48:59.395Z,24.05
2023-03-30T21:51:31.969Z,28.38
2023-03-30T21:54:04.090Z,27.20
2023-03-30T21:56:36.157Z,27.63
2023-03-30T21:59:08.040Z,25.75
2023-03-30T22:01:40.080Z,26.13
2023-03-30T22:04:11.997Z,30.08
2023-03-30T22:06:44.227Z,26.40
2023-03-30T22:09:16.102Z,22.92
2023-03-30T22:11:48.090Z,27.08
2023-03-30T22:14:20.147Z,34.17
2023-03-30T22:16:52.144Z,28.02
2023-03-30T22:19:24.672Z,25.52
2023-03-30T22:21:56.676Z,24.67
2023-03-30T22:24:28.529Z,26.08
2023-03-30T22:27:00.426Z,25.48
2023-03-30T22:29:32.434Z,29.85
2023-03-30T22:32:04.835Z,30.60
2023-03-30T22:34:37.657Z,30.08
2023-03-30T22:37:09.612Z,25.55
2023-03-30T22:39:42.003Z,27.23
2023-03-30T22:42:14.014Z,26.77
2023-03-30T22:44:46.705Z,30.13
2023-03-30T22:47:18.670Z,26.83
2023-03-30T22:49:50.543Z,27.27
2023-03-30T22:52:22.842Z,27.73
2023-03-30T22:54:54.978Z,28.13
2023-03-30T22:57:27.915Z,29.75
2023-03-30T22:59:59.953Z,30.45
2023-03-30T23:02:31.790Z,31.50
2023-03-30T23:05:05.938Z,28.27
2023-03-30T23:07:37.829Z,29.20
2023-03-30T23:10:14.669Z,30.98
2023-03-30T23:12:46.839Z,30.73
2023-03-30T23:15:18.823Z,28.60
2023-03-30T23:17:51.144Z,27.98
2023-03-30T23:20:23.172Z,31.65
2023-03-30T23:22:55.483Z,25.90
2023-03-30T23:25:27.500Z,27.35
2023-03-30T23:28:01.014Z,28.08
2023-03-30T23:30:32.922Z,29.50
2023-03-30T23:33:04.886Z,29.45
2023-03-30T23:35:37.026Z,33.42
2023-03-30T23:38:10.485Z,28.70
2023-03-30T23:40:43.011Z,30.40
2023-03-30T23:43:15.097Z,30.33
2023-03-30T23:45:46.877Z,29.35
2023-03-30T23:48:19.449Z,28.10
2023-03-30T23:50:51.426Z,31.88
2023-03-30T23:53:25.084Z,25.15
2023-03-30T23:55:58.360Z,34.38
2023-03-30T23:58:30.434Z,30.20
